Time;durP1;ratioP1;P1;durP2;ratioP2;P2;SDS_P1;SDS_P2;PMS_P1;PMS_P2;Temp;Humidity;BMP_temperature;BMP_pressure;BME280_temperature;BME280_humidity;BME280_pressure;Samples;Min_cycle;Max_cycle;Signal;HPM_P1;HPM_P2
2023/06/01 00:02:24;;;;;;;46.83;20.77;;;;;;;;;;6211542;23;20442;-77
2023/06/01 00:04:50;;;;;;;42.67;21.15;;;;;;;;;;6212241;23;20001;-77
2023/06/01 00:07:15;;;;;;;46.75;21.35;;;;;;;;;;6214160;23;20082;-78
2023/06/01 00:09:41;;;;;;;45.63;21.42;;;;;;;;;;6213471;23;20436;-77
2023/06/01 00:12:07;;;;;;;51.35;20.55;;;;;;;;;;6211849;23;20483;-77
2023/06/01 00:14:32;;;;;;;49.20;21.13;;;;;;;;;;6186894;23;20012;-77
2023/06/01 00:16:58;;;;;;;50.47;19.52;;;;;;;;;;6186524;23;20000;-77
2023/06/01 00:19:44;;;;;;;35.40;18.15;;;;;;;;;;6213365;23;20008;-77
2023/06/01 00:22:10;;;;;;;44.78;16.55;;;;;;;;;;6213439;23;20659;-77
2023/06/01 00:24:36;;;;;;;32.85;15.50;;;;;;;;;;6212216;23;20040;-77
2023/06/01 00:27:01;;;;;;;35.55;16.35;;;;;;;;;;6212088;23;19997;-78
2023/06/01 00:29:27;;;;;;;29.23;15.55;;;;;;;;;;6213095;23;20071;-77
2023/06/01 00:31:52;;;;;;;28.75;15.82;;;;;;;;;;6161889;23;20005;-76
2023/06/01 00:34:17;;;;;;;41.60;17.15;;;;;;;;;;6211665;23;20070;-76
2023/06/01 00:36:43;;;;;;;36.45;15.82;;;;;;;;;;6212052;23;20487;-77
2023/06/01 00:39:08;;;;;;;33.83;15.45;;;;;;;;;;6211914;23;20035;-78
2023/06/01 00:41:34;;;;;;;35.85;15.75;;;;;;;;;;6186673;23;20005;-77
2023/06/01 00:44:00;;;;;;;32.45;16.50;;;;;;;;;;6186742;23;20015;-77
2023/06/01 00:46:25;;;;;;;30.23;16.33;;;;;;;;;;6212327;23;20001;-78
2023/06/01 00:48:51;;;;;;;35.53;16.80;;;;;;;;;;6211853;23;20004;-77
2023/06/01 00:51:17;;;;;;;42.65;17.05;;;;;;;;;;6211860;23;20011;-77
2023/06/01 00:53:42;;;;;;;40.47;18.67;;;;;;;;;;6209430;23;20391;-77
2023/06/01 00:56:08;;;;;;;45.28;17.38;;;;;;;;;;6161121;23;20009;-77
2023/06/01 00:58:33;;;;;;;37.60;18.55;;;;;;;;;;6161702;23;20004;-78
2023/06/01 01:01:01;;;;;;;50.63;17.88;;;;;;;;;;6211447;23;20413;-76
2023/06/01 01:03:27;;;;;;;39.08;17.60;;;;;;;;;;6213177;23;20390;-77
2023/06/01 01:05:57;;;;;;;39.42;17.02;;;;;;;;;;6186962;23;20001;-76
2023/06/01 01:08:32;;;;;;;;;;;;;;;;;;6187994;23;20005;-77
2023/06/01 01:11:06;;;;;;;36.00;15.98;;;;;;;;;;6186943;23;19908;-78
2023/06/01 01:13:44;;;;;;;34.15;17.23;;;;;;;;;;6186487;23;20086;-77
2023/06/01 01:16:12;;;;;;;40.20;18.27;;;;;;;;;;6211671;23;20000;-78
2023/06/01 01:18:53;;;;;;;34.10;17.85;;;;;;;;;;6211970;23;20016;-78
2023/06/01 01:21:22;;;;;;;35.25;18.10;;;;;;;;;;6188545;23;20087;-79
2023/06/01 01:24:06;;;;;;;41.63;19.15;;;;;;;;;;6163256;23;20015;-78
2023/06/01 01:27:01;;;;;;;38.38;17.80;;;;;;;;;;6213526;23;20063;-78
2023/06/01 01:29:26;;;;;;;48.25;19.30;;;;;;;;;;6202070;23;20006;-78
2023/06/01 01:31:51;;;;;;;40.28;18.60;;;;;;;;;;6161744;23;20336;-79
2023/06/01 01:34:18;;;;;;;40.78;18.85;;;;;;;;;;6210929;23;20004;-79
2023/06/01 01:36:43;;;;;;;43.80;18.90;;;;;;;;;;6186601;23;20007;-79
2023/06/01 01:39:09;;;;;;;48.38;18.75;;;;;;;;;;6211813;23;20095;-79
2023/06/01 01:41:34;;;;;;;37.03;18.90;;;;;;;;;;6186495;23;20001;-79
2023/06/01 01:44:00;;;;;;;40.55;19.35;;;;;;;;;;6186771;23;20094;-77
2023/06/01 01:46:29;;;;;;;41.88;19.05;;;;;;;;;;6215030;23;20069;-78
2023/06/01 01:49:13;;;;;;;34.60;17.60;;;;;;;;;;6189328;23;20079;-78
2023/06/01 01:51:41;;;;;;;40.47;17.38;;;;;;;;;;6191210;23;20007;-78
2023/06/01 01:54:07;;;;;;;37.90;17.70;;;;;;;;;;6213258;23;20008;-78
2023/06/01 01:56:35;;;;;;;42.42;18.77;;;;;;;;;;6160995;23;20015;-78
2023/06/01 01:59:00;;;;;;;39.72;17.77;;;;;;;;;;6188342;23;20005;-78
2023/06/01 02:01:26;;;;;;;39.28;19.05;;;;;;;;;;6187936;23;20062;-78
2023/06/01 02:03:59;;;;;;;37.05;18.35;;;;;;;;;;6213262;23;20001;-78
2023/06/01 02:06:25;;;;;;;41.67;20.08;;;;;;;;;;6188602;23;20099;-79
2023/06/01 02:08:50;;;;;;;37.72;19.70;;;;;;;;;;6213200;23;20392;-78
2023/06/01 02:11:16;;;;;;;34.22;18.20;;;;;;;;;;6212710;23;20005;-78
2023/06/01 02:13:41;;;;;;;41.80;19.35;;;;;;;;;;6213140;23;20000;-77
2023/06/01 02:16:06;;;;;;;46.33;19.80;;;;;;;;;;6212973;23;20011;-78
2023/06/01 02:18:32;;;;;;;34.38;19.10;;;;;;;;;;6214506;23;20004;-78
2023/06/01 02:20:57;;;;;;;42.72;18.27;;;;;;;;;;6187806;23;20012;-78
2023/06/01 02:23:23;;;;;;;45.92;18.67;;;;;;;;;;6188349;23;20408;-79
2023/06/01 02:25:48;;;;;;;41.10;17.00;;;;;;;;;;6213267;23;20011;-78
2023/06/01 02:28:13;;;;;;;33.58;18.88;;;;;;;;;;6214498;23;20008;-78
2023/06/01 02:30:39;;;;;;;41.50;18.33;;;;;;;;;;6214766;23;20399;-78
2023/06/01 02:33:04;;;;;;;54.78;20.58;;;;;;;;;;6213238;23;20428;-78
2023/06/01 02:35:30;;;;;;;33.90;18.98;;;;;;;;;;6213691;23;20428;-78
2023/06/01 02:37:56;;;;;;;38.60;20.05;;;;;;;;;;6213098;23;20367;-78
2023/06/01 02:40:22;;;;;;;38.08;20.15;;;;;;;;;;6212946;23;20027;-78
2023/06/01 02:42:47;;;;;;;40.42;20.65;;;;;;;;;;6213166;23;20463;-77
2023/06/01 02:45:12;;;;;;;50.10;21.40;;;;;;;;;;6212912;23;20012;-78
2023/06/01 02:47:38;;;;;;;43.90;21.20;;;;;;;;;;6213156;23;20000;-78
2023/06/01 02:50:04;;;;;;;42.25;23.50;;;;;;;;;;6212805;23;20064;-78
2023/06/01 02:52:31;;;;;;;46.47;24.10;;;;;;;;;;6212731;23;20479;-79
2023/06/01 02:54:56;;;;;;;48.00;22.88;;;;;;;;;;6212466;23;20412;-78
2023/06/01 02:57:22;;;;;;;42.40;22.70;;;;;;;;;;6212405;23;20099;-78
2023/06/01 02:59:47;;;;;;;44.95;23.33;;;;;;;;;;6212090;23;20004;-79
2023/06/01 03:02:12;;;;;;;44.90;22.05;;;;;;;;;;6212287;23;20004;-78
2023/06/01 03:04:38;;;;;;;46.25;22.63;;;;;;;;;;6212792;23;20011;-78
2023/06/01 03:07:04;;;;;;;45.03;21.88;;;;;;;;;;6163270;23;20032;-78
2023/06/01 03:09:29;;;;;;;46.72;22.70;;;;;;;;;;6212920;23;20036;-78
2023/06/01 03:11:55;;;;;;;40.72;21.50;;;;;;;;;;6214383;23;20332;-79
2023/06/01 03:14:20;;;;;;;42.03;20.98;;;;;;;;;;6212488;23;20040;-78
2023/06/01 03:16:46;;;;;;;40.40;21.60;;;;;;;;;;6214043;23;20051;-79
2023/06/01 03:19:11;;;;;;;35.90;20.17;;;;;;;;;;6212589;23;20063;-78
2023/06/01 03:21:37;;;;;;;42.58;20.77;;;;;;;;;;6187297;23;20007;-78
2023/06/01 03:24:02;;;;;;;41.08;20.75;;;;;;;;;;6212264;23;20107;-78
2023/06/01 03:26:28;;;;;;;38.33;19.50;;;;;;;;;;6212739;23;20007;-78
2023/06/01 03:28:53;;;;;;;39.17;19.48;;;;;;;;;;6214398;23;20084;-79
2023/06/01 03:31:19;;;;;;;43.42;19.30;;;;;;;;;;6187677;23;20409;-79
2023/06/01 03:33:44;;;;;;;41.97;19.35;;;;;;;;;;6213912;23;20004;-78
2023/06/01 03:36:10;;;;;;;31.95;18.67;;;;;;;;;;6213969;23;20031;-78
2023/06/01 03:38:35;;;;;;;38.42;19.25;;;;;;;;;;6212167;23;20051;-76
2023/06/01 03:41:01;;;;;;;39.28;18.95;;;;;;;;;;6212274;23;20048;-78
2023/06/01 03:43:27;;;;;;;42.38;19.95;;;;;;;;;;6212592;23;20012;-78
2023/06/01 03:45:52;;;;;;;44.05;19.13;;;;;;;;;;6212247;23;19997;-78
2023/06/01 03:48:18;;;;;;;43.25;20.02;;;;;;;;;;6212451;23;20004;-78
2023/06/01 03:50:43;;;;;;;34.42;19.95;;;;;;;;;;6212185;23;20000;-78
2023/06/01 03:53:09;;;;;;;39.45;20.38;;;;;;;;;;6211861;23;20417;-78
2023/06/01 03:55:35;;;;;;;41.35;20.55;;;;;;;;;;6187224;23;20016;-78
2023/06/01 03:58:02;;;;;;;39.95;20.33;;;;;;;;;;6163076;23;20008;-78
2023/06/01 04:00:27;;;;;;;37.72;19.90;;;;;;;;;;6210779;23;20076;-77
2023/06/01 04:02:54;;;;;;;38.30;20.88;;;;;;;;;;6211622;23;20351;-78
2023/06/01 04:05:20;;;;;;;40.92;20.80;;;;;;;;;;6212173;23;20007;-78
2023/06/01 04:07:50;;;;;;;42.55;19.33;;;;;;;;;;6211663;23;20559;-78
2023/06/01 04:10:16;;;;;;;42.65;21.17;;;;;;;;;;6212250;23;20005;-77
2023/06/01 04:12:43;;;;;;;41.38;19.85;;;;;;;;;;6187078;23;20365;-77
2023/06/01 04:15:10;;;;;;;47.45;19.60;;;;;;;;;;6187240;23;20063;-77
2023/06/01 04:17:37;;;;;;;39.17;19.67;;;;;;;;;;6212083;23;20011;-77
2023/06/01 04:20:06;;;;;;;42.90;19.85;;;;;;;;;;6212198;23;20337;-77
2023/06/01 04:22:32;;;;;;;41.42;19.02;;;;;;;;;;6213562;23;20004;-78
2023/06/01 04:24:57;;;;;;;35.72;18.63;;;;;;;;;;6212125;23;20428;-78
2023/06/01 04:27:24;;;;;;;37.72;19.75;;;;;;;;;;6187398;23;20012;-79
2023/06/01 04:29:50;;;;;;;42.88;18.30;;;;;;;;;;6213636;23;20012;-79
2023/06/01 04:32:21;;;;;;;34.05;18.50;;;;;;;;;;6186855;23;20087;-79
2023/06/01 04:34:49;;;;;;;33.67;17.48;;;;;;;;;;6211827;23;20011;-80
2023/06/01 04:37:15;;;;;;;44.38;18.92;;;;;;;;;;6189138;23;20000;-85
2023/06/01 04:39:45;;;;;;;40.75;19.70;;;;;;;;;;6190522;23;20069;-86
2023/06/01 04:42:13;;;;;;;36.13;18.58;;;;;;;;;;6215497;23;20005;-87
2023/06/01 04:44:39;;;;;;;37.88;18.27;;;;;;;;;;6208130;23;20335;-86
2023/06/01 04:47:05;;;;;;;30.98;16.90;;;;;;;;;;6212118;23;20485;-85
2023/06/01 04:49:30;;;;;;;35.60;16.70;;;;;;;;;;6213217;23;20001;-82
2023/06/01 04:51:56;;;;;;;37.65;18.23;;;;;;;;;;6224518;23;20058;-85
2023/06/01 04:54:21;;;;;;;42.75;20.73;;;;;;;;;;6222571;23;20079;-85
2023/06/01 04:56:47;;;;;;;34.22;19.27;;;;;;;;;;6221346;23;20016;-85
2023/06/01 04:59:13;;;;;;;50.03;19.65;;;;;;;;;;6224385;23;20059;-85
2023/06/01 05:01:39;;;;;;;42.90;19.30;;;;;;;;;;6198255;23;20007;-86
2023/06/01 05:04:04;;;;;;;40.20;20.05;;;;;;;;;;6222046;23;20009;-85
2023/06/01 05:06:30;;;;;;;43.10;19.23;;;;;;;;;;6224011;23;20416;-85
2023/06/01 05:08:57;;;;;;;41.72;19.48;;;;;;;;;;6221079;23;20366;-85
2023/06/01 05:11:27;;;;;;;35.45;19.10;;;;;;;;;;6220919;23;19997;-84
2023/06/01 05:13:54;;;;;;;41.53;18.33;;;;;;;;;;6221526;23;20015;-84
2023/06/01 05:16:20;;;;;;;37.47;18.63;;;;;;;;;;6217665;23;20005;-85
2023/06/01 05:18:45;;;;;;;32.92;17.73;;;;;;;;;;6222546;23;20000;-85
2023/06/01 05:21:11;;;;;;;38.95;17.65;;;;;;;;;;6224810;23;20066;-85
2023/06/01 05:23:36;;;;;;;34.20;16.48;;;;;;;;;;6222701;23;20045;-84
2023/06/01 05:26:02;;;;;;;40.45;17.15;;;;;;;;;;6195646;23;20060;-85
2023/06/01 05:28:31;;;;;;;34.05;15.82;;;;;;;;;;6196098;23;20004;-86
2023/06/01 05:30:57;;;;;;;35.08;15.50;;;;;;;;;;6225423;23;20008;-84
2023/06/01 05:33:22;;;;;;;32.97;14.77;;;;;;;;;;6222940;23;20092;-85
2023/06/01 05:35:48;;;;;;;29.65;14.93;;;;;;;;;;6225596;23;20004;-84
2023/06/01 05:38:13;;;;;;;30.52;14.98;;;;;;;;;;6226667;23;20024;-86
2023/06/01 05:40:38;;;;;;;28.08;13.93;;;;;;;;;;6200470;23;20000;-85
2023/06/01 05:43:04;;;;;;;30.80;14.20;;;;;;;;;;6222330;23;20016;-85
2023/06/01 05:45:32;;;;;;;31.55;14.55;;;;;;;;;;6225603;23;20001;-85
2023/06/01 05:47:58;;;;;;;27.50;15.18;;;;;;;;;;6199969;23;20005;-87
2023/06/01 05:50:42;;;;;;;29.45;14.52;;;;;;;;;;6200020;23;20342;-87
2023/06/01 05:53:08;;;;;;;32.55;14.73;;;;;;;;;;6231695;23;20000;-85
2023/06/01 05:55:53;;;;;;;28.98;13.68;;;;;;;;;;6235382;23;20005;-86
2023/06/01 05:58:22;;;;;;;30.77;13.68;;;;;;;;;;6238582;23;20009;-87
2023/06/01 06:00:48;;;;;;;28.88;12.88;;;;;;;;;;6235531;23;20009;-87
2023/06/01 06:03:21;;;;;;;30.15;12.77;;;;;;;;;;6213418;23;19992;-87
2023/06/01 06:05:46;;;;;;;24.88;12.00;;;;;;;;;;6182734;23;20004;-87
2023/06/01 06:08:12;;;;;;;29.58;12.52;;;;;;;;;;6228541;23;20035;-88
2023/06/01 06:10:37;;;;;;;23.92;12.60;;;;;;;;;;6177945;23;20020;-87
2023/06/01 06:13:03;;;;;;;24.25;11.85;;;;;;;;;;6175471;23;20028;-87
2023/06/01 06:15:31;;;;;;;24.60;12.32;;;;;;;;;;6223733;23;20332;-87
2023/06/01 06:17:57;;;;;;;20.27;11.27;;;;;;;;;;6223865;23;20248;-86
2023/06/01 06:24:20;;;;;;;22.98;11.70;;;;;;;;;;6223304;23;20036;-86
2023/06/01 06:26:45;;;;;;;20.05;12.20;;;;;;;;;;6200748;23;20059;-86
2023/06/01 06:29:17;;;;;;;21.20;11.68;;;;;;;;;;6197366;23;20073;-87
2023/06/01 06:31:45;;;;;;;23.85;12.23;;;;;;;;;;6175233;23;20017;-85
2023/06/01 06:34:19;;;;;;;22.23;11.68;;;;;;;;;;6203076;23;20005;-87
2023/06/01 06:36:46;;;;;;;24.70;11.95;;;;;;;;;;6228521;23;20007;-88
2023/06/01 06:39:12;;;;;;;24.30;10.70;;;;;;;;;;6177282;23;20005;-87
2023/06/01 06:42:02;;;;;;;24.85;10.88;;;;;;;;;;6226755;23;20040;-85
2023/06/01 06:44:27;;;;;;;;;;;;;;;;;;6227016;23;20142;-87
2023/06/01 06:46:52;;;;;;;27.90;11.25;;;;;;;;;;6223567;23;19982;-86
2023/06/01 06:49:19;;;;;;;20.08;12.10;;;;;;;;;;6226048;23;20009;-87
2023/06/01 06:51:47;;;;;;;27.20;12.73;;;;;;;;;;6173346;23;20000;-85
2023/06/01 06:54:14;;;;;;;29.75;15.60;;;;;;;;;;6221220;23;20614;-87
2023/06/01 06:56:40;;;;;;;24.15;14.05;;;;;;;;;;6223796;23;20015;-88
2023/06/01 06:59:05;;;;;;;26.65;14.48;;;;;;;;;;6197837;23;20048;-87
2023/06/01 07:01:33;;;;;;;28.25;14.25;;;;;;;;;;6172138;23;20016;-87
2023/06/01 07:04:02;;;;;;;31.98;13.35;;;;;;;;;;6221281;23;20012;-87
2023/06/01 07:06:27;;;;;;;22.90;13.10;;;;;;;;;;6171000;23;20075;-88
2023/06/01 07:08:56;;;;;;;27.40;12.32;;;;;;;;;;6220778;23;20001;-87
2023/06/01 07:11:23;;;;;;;21.30;13.00;;;;;;;;;;6197096;23;20099;-87
2023/06/01 07:13:51;;;;;;;27.60;12.65;;;;;;;;;;6173002;23;20075;-86
2023/06/01 07:16:16;;;;;;;24.73;12.43;;;;;;;;;;6196552;23;20004;-87
2023/06/01 07:18:42;;;;;;;26.83;12.30;;;;;;;;;;6171554;23;20008;-87
2023/06/01 07:21:07;;;;;;;28.52;11.50;;;;;;;;;;6220086;23;20004;-87
2023/06/01 07:23:35;;;;;;;27.88;12.23;;;;;;;;;;6194073;23;20329;-87
2023/06/01 07:26:01;;;;;;;21.85;12.02;;;;;;;;;;6218435;23;20057;-87
2023/06/01 07:28:26;;;;;;;20.80;10.93;;;;;;;;;;6194540;23;20008;-86
2023/06/01 07:30:55;;;;;;;27.88;12.68;;;;;;;;;;6218412;23;20421;-85
2023/06/01 07:33:22;;;;;;;29.30;13.67;;;;;;;;;;6198792;23;20016;-87
2023/06/01 07:39:55;;;;;;;25.15;14.50;;;;;;;;;;6224299;23;20032;-87
2023/06/01 07:42:21;;;;;;;32.20;15.93;;;;;;;;;;6222979;23;20008;-87
2023/06/01 07:44:50;;;;;;;29.20;15.77;;;;;;;;;;6227146;23;19993;-88
2023/06/01 07:47:21;;;;;;;27.25;15.45;;;;;;;;;;6223757;23;20471;-88
2023/06/01 07:49:46;;;;;;;29.17;14.60;;;;;;;;;;6197772;23;20001;-88
2023/06/01 07:52:12;;;;;;;28.38;15.68;;;;;;;;;;6175316;23;20005;-86
2023/06/01 07:54:38;;;;;;;35.05;15.50;;;;;;;;;;6199951;23;20001;-86
2023/06/01 07:57:07;;;;;;;28.80;15.43;;;;;;;;;;6171627;23;20019;-84
2023/06/01 07:59:32;;;;;;;25.17;15.00;;;;;;;;;;6222240;23;20005;-87
2023/06/01 08:02:01;;;;;;;26.73;15.20;;;;;;;;;;6171357;23;20009;-88
2023/06/01 08:05:03;;;;;;;29.13;12.30;;;;;;;;;;6219979;23;20447;-89
2023/06/01 08:07:39;;;;;;;19.20;11.48;;;;;;;;;;6229289;23;20031;-90
2023/06/01 08:10:23;;;;;;;22.85;12.13;;;;;;;;;;6201673;23;20052;-88
2023/06/01 08:12:56;;;;;;;18.40;11.07;;;;;;;;;;6202075;23;20039;-87
2023/06/01 08:15:42;;;;;;;19.00;11.95;;;;;;;;;;6226126;23;20004;-87
2023/06/01 08:18:09;;;;;;;27.13;12.32;;;;;;;;;;6222497;23;19997;-87
2023/06/01 08:20:45;;;;;;;31.30;12.68;;;;;;;;;;6224256;23;20023;-86
2023/06/01 08:23:42;;;;;;;21.17;12.02;;;;;;;;;;6223710;23;20013;-88
2023/06/01 08:26:10;;;;;;;20.40;11.20;;;;;;;;;;6221968;23;20133;-88
2023/06/01 08:28:38;;;;;;;17.45;10.43;;;;;;;;;;6226124;23;20075;-83
2023/06/01 08:31:05;;;;;;;20.90;10.70;;;;;;;;;;6201770;23;20012;-87
2023/06/01 08:33:40;;;;;;;25.80;10.65;;;;;;;;;;6201992;23;20025;-90
2023/06/01 08:36:06;;;;;;;20.75;10.15;;;;;;;;;;6203297;23;20020;-88
2023/06/01 08:41:44;;;;;;;15.00;9.18;;;;;;;;;;6183429;23;20008;-87
2023/06/01 08:44:10;;;;;;;18.77;9.80;;;;;;;;;;6179811;23;20004;-90
2023/06/01 08:46:35;;;;;;;18.13;9.40;;;;;;;;;;6176054;23;20080;-82
2023/06/01 08:49:01;;;;;;;15.18;9.52;;;;;;;;;;6175430;23;20004;-92
2023/06/01 08:52:02;;;;;;;18.67;9.32;;;;;;;;;;6176454;23;20015;-85
2023/06/01 08:57:43;;;;;;;15.73;9.00;;;;;;;;;;6229647;23;20028;-87
2023/06/01 09:00:11;;;;;;;19.17;9.15;;;;;;;;;;6230802;23;20429;-87
2023/06/01 09:02:37;;;;;;;16.33;8.82;;;;;;;;;;6225551;23;20005;-85
2023/06/01 09:05:03;;;;;;;14.18;8.93;;;;;;;;;;6225150;23;20048;-86
2023/06/01 09:07:31;;;;;;;15.77;8.70;;;;;;;;;;6226187;23;20107;-86
2023/06/01 09:09:56;;;;;;;14.73;7.18;;;;;;;;;;6199419;23;20011;-87
2023/06/01 09:12:29;;;;;;;12.30;6.95;;;;;;;;;;6199063;23;20008;-85
2023/06/01 09:15:10;;;;;;;13.40;7.32;;;;;;;;;;6198754;23;20088;-87
2023/06/01 09:17:36;;;;;;;14.38;8.02;;;;;;;;;;6217211;23;20022;-88
2023/06/01 09:20:03;;;;;;;11.02;7.35;;;;;;;;;;6165224;23;20008;-87
2023/06/01 09:22:45;;;;;;;15.10;7.43;;;;;;;;;;6190097;23;20552;-85
2023/06/01 09:25:12;;;;;;;10.25;6.80;;;;;;;;;;6214432;23;20087;-83
2023/06/01 09:27:58;;;;;;;11.63;6.68;;;;;;;;;;6188431;23;20004;-84
2023/06/01 09:30:25;;;;;;;10.10;6.75;;;;;;;;;;6213068;23;20004;-86
2023/06/01 09:32:52;;;;;;;8.63;6.50;;;;;;;;;;6188539;23;20075;-88
2023/06/01 09:35:43;;;;;;;15.02;7.13;;;;;;;;;;6163770;23;20147;-85
2023/06/01 09:38:10;;;;;;;14.52;6.47;;;;;;;;;;6187004;23;20462;-85
2023/06/01 09:40:37;;;;;;;10.40;6.13;;;;;;;;;;6162990;23;20086;-86
2023/06/01 09:43:03;;;;;;;8.90;6.53;;;;;;;;;;6214112;23;20198;-85
2023/06/01 09:45:30;;;;;;;10.35;6.55;;;;;;;;;;6185861;23;20032;-85
2023/06/01 09:48:15;;;;;;;16.08;7.13;;;;;;;;;;6213750;23;20007;-85
2023/06/01 09:50:42;;;;;;;14.25;6.70;;;;;;;;;;6166377;23;20095;-85
2023/06/01 09:53:15;;;;;;;11.68;6.25;;;;;;;;;;6215518;23;20015;-85
2023/06/01 09:55:59;;;;;;;10.05;6.65;;;;;;;;;;6216913;23;20024;-86
2023/06/01 09:58:24;;;;;;;11.10;7.10;;;;;;;;;;6188705;23;20404;-87
2023/06/01 10:00:51;;;;;;;12.50;7.45;;;;;;;;;;6212283;23;20006;-82
2023/06/01 10:03:18;;;;;;;11.85;6.75;;;;;;;;;;6185937;23;20015;-86
2023/06/01 10:05:44;;;;;;;15.60;6.68;;;;;;;;;;6188502;23;20004;-83
2023/06/01 10:08:13;;;;;;;14.93;6.78;;;;;;;;;;6212903;23;20001;-87
2023/06/01 10:10:50;;;;;;;10.52;6.50;;;;;;;;;;6189132;23;20058;-90
2023/06/01 10:13:15;;;;;;;10.82;6.85;;;;;;;;;;6216086;23;20008;-86
2023/06/01 10:15:41;;;;;;;11.02;6.55;;;;;;;;;;6186014;23;20004;-86
2023/06/01 10:18:06;;;;;;;13.10;6.50;;;;;;;;;;6186539;23;20004;-85
2023/06/01 10:20:33;;;;;;;11.60;7.07;;;;;;;;;;6187371;23;20009;-85
2023/06/01 10:23:00;;;;;;;11.18;6.40;;;;;;;;;;6187096;23;20340;-82
2023/06/01 10:25:26;;;;;;;11.35;6.50;;;;;;;;;;6210817;23;20013;-85
2023/06/01 10:28:02;;;;;;;12.27;7.03;;;;;;;;;;6212674;23;20079;-85
2023/06/01 10:30:27;;;;;;;14.18;6.97;;;;;;;;;;6163902;23;20058;-83
2023/06/01 10:32:54;;;;;;;13.25;7.07;;;;;;;;;;6173115;23;20013;-84
2023/06/01 10:36:18;;;;;;;12.48;7.18;;;;;;;;;;6175788;23;20028;-84
2023/06/01 10:38:43;;;;;;;9.95;6.80;;;;;;;;;;6171114;23;20068;-86
2023/06/01 10:41:28;;;;;;;11.82;7.18;;;;;;;;;;6225633;23;20013;-85
2023/06/01 10:43:53;;;;;;;11.32;7.80;;;;;;;;;;6176556;23;20008;-84
2023/06/01 10:46:40;;;;;;;14.07;7.35;;;;;;;;;;6174181;23;20032;-85
2023/06/01 10:49:06;;;;;;;14.88;7.70;;;;;;;;;;6225126;23;20348;-86
2023/06/01 10:51:31;;;;;;;12.48;7.00;;;;;;;;;;6173239;23;20084;-85
2023/06/01 10:54:29;;;;;;;9.88;6.90;;;;;;;;;;6223496;23;20001;-84
2023/06/01 10:57:23;;;;;;;9.55;7.05;;;;;;;;;;6221020;23;20008;-87
2023/06/01 11:00:13;;;;;;;15.02;7.80;;;;;;;;;;6220485;23;20033;-87
2023/06/01 11:02:48;;;;;;;11.07;7.38;;;;;;;;;;6221977;23;20407;-84
2023/06/01 11:05:43;;;;;;;13.18;7.70;;;;;;;;;;6221770;23;20009;-85
2023/06/01 11:08:30;;;;;;;11.10;7.30;;;;;;;;;;6207248;23;20005;-84
2023/06/01 11:10:57;;;;;;;9.90;7.13;;;;;;;;;;6194450;23;20009;-85
2023/06/01 11:13:29;;;;;;;10.68;7.63;;;;;;;;;;6196113;23;20066;-86
2023/06/01 11:16:04;;;;;;;12.63;7.28;;;;;;;;;;6196365;23;20000;-84
2023/06/01 11:19:01;;;;;;;12.50;7.75;;;;;;;;;;6220627;23;20004;-86
2023/06/01 11:21:40;;;;;;;10.93;7.45;;;;;;;;;;6200840;23;20005;-82
2023/06/01 11:24:13;;;;;;;13.05;7.60;;;;;;;;;;6197730;23;20016;-85
2023/06/01 11:26:43;;;;;;;13.68;7.60;;;;;;;;;;6172572;23;20393;-84
2023/06/01 11:29:25;;;;;;;14.80;7.90;;;;;;;;;;6175445;23;20011;-84
2023/06/01 11:31:58;;;;;;;13.15;8.00;;;;;;;;;;6221047;23;20039;-86
2023/06/01 11:34:41;;;;;;;16.00;7.93;;;;;;;;;;6196281;23;20008;-84
2023/06/01 11:37:13;;;;;;;16.23;7.88;;;;;;;;;;6220041;23;20337;-85
2023/06/01 11:39:40;;;;;;;14.32;7.57;;;;;;;;;;6222294;23;20057;-84
2023/06/01 11:42:09;;;;;;;11.18;7.43;;;;;;;;;;6197416;23;20007;-85
2023/06/01 11:44:36;;;;;;;11.98;7.53;;;;;;;;;;6193526;23;20122;-82
2023/06/01 11:47:01;;;;;;;15.65;8.23;;;;;;;;;;6170377;23;20018;-84
2023/06/01 11:49:27;;;;;;;14.85;7.65;;;;;;;;;;6192685;23;20005;-82
2023/06/01 11:51:55;;;;;;;13.82;7.60;;;;;;;;;;6213067;23;20067;-80
2023/06/01 11:54:26;;;;;;;14.52;8.18;;;;;;;;;;6190673;23;20005;-81
2023/06/01 11:56:52;;;;;;;14.05;7.47;;;;;;;;;;6221442;23;20009;-85
2023/06/01 11:59:18;;;;;;;12.88;7.93;;;;;;;;;;6173074;23;20001;-86
2023/06/01 12:01:44;;;;;;;15.13;7.60;;;;;;;;;;6198253;23;20067;-84
2023/06/01 12:04:13;;;;;;;11.75;7.82;;;;;;;;;;6195609;23;20066;-88
2023/06/01 12:06:39;;;;;;;15.32;7.60;;;;;;;;;;6220440;23;20005;-87
2023/06/01 12:09:06;;;;;;;22.40;12.43;;;;;;;;;;6195695;23;20090;-84
2023/06/01 12:11:32;;;;;;;16.45;9.27;;;;;;;;;;6195945;23;20512;-87
2023/06/01 12:13:57;;;;;;;18.25;7.95;;;;;;;;;;6204578;23;20036;-88
2023/06/01 12:16:23;;;;;;;14.65;7.15;;;;;;;;;;6236327;23;20005;-85
2023/06/01 12:18:49;;;;;;;14.15;7.57;;;;;;;;;;6202601;23;20008;-84
2023/06/01 12:21:16;;;;;;;15.18;7.57;;;;;;;;;;6225151;23;20011;-85
2023/06/01 12:23:41;;;;;;;12.15;7.43;;;;;;;;;;6171714;23;20075;-85
2023/06/01 12:26:08;;;;;;;13.63;7.68;;;;;;;;;;6196449;23;20008;-83
2023/06/01 12:29:06;;;;;;;13.75;7.75;;;;;;;;;;6196445;23;20001;-83
2023/06/01 12:31:32;;;;;;;15.82;7.95;;;;;;;;;;6140375;23;20013;-84
2023/06/01 12:33:57;;;;;;;12.93;7.90;;;;;;;;;;6220145;23;20122;-85
2023/06/01 12:36:35;;;;;;;12.98;8.10;;;;;;;;;;6169989;23;20000;-84
2023/06/01 12:39:03;;;;;;;14.63;8.23;;;;;;;;;;6224831;23;20005;-86
2023/06/01 12:41:29;;;;;;;15.02;8.05;;;;;;;;;;6173984;23;20008;-84
2023/06/01 12:43:55;;;;;;;17.25;8.27;;;;;;;;;;6221595;23;20001;-86
2023/06/01 12:46:22;;;;;;;14.82;8.23;;;;;;;;;;6197417;23;20001;-85
2023/06/01 12:48:47;;;;;;;13.07;8.85;;;;;;;;;;6196566;23;20083;-85
2023/06/01 12:51:13;;;;;;;14.15;7.60;;;;;;;;;;6221448;23;20001;-84
2023/06/01 12:53:39;;;;;;;23.92;14.25;;;;;;;;;;6221747;23;20038;-85
2023/06/01 12:56:06;;;;;;;16.70;8.45;;;;;;;;;;6222648;23;20008;-85
2023/06/01 12:58:31;;;;;;;15.05;8.07;;;;;;;;;;6198078;23;20087;-86
2023/06/01 13:00:57;;;;;;;18.75;8.20;;;;;;;;;;6170056;23;20009;-86
2023/06/01 13:03:22;;;;;;;12.65;7.93;;;;;;;;;;6161545;23;20004;-85
2023/06/01 13:05:49;;;;;;;10.85;7.47;;;;;;;;;;6161672;23;20004;-87
2023/06/01 13:08:15;;;;;;;19.95;8.65;;;;;;;;;;6212320;23;20004;-87
2023/06/01 13:10:41;;;;;;;20.33;8.15;;;;;;;;;;6213808;23;20005;-83
2023/06/01 13:13:07;;;;;;;12.63;7.88;;;;;;;;;;6212090;23;20038;-85
2023/06/01 13:15:33;;;;;;;15.35;7.82;;;;;;;;;;6215798;23;20001;-84
2023/06/01 13:17:58;;;;;;;16.42;8.45;;;;;;;;;;6212416;23;20495;-83
2023/06/01 13:20:24;;;;;;;11.52;7.97;;;;;;;;;;6161657;23;20011;-83
2023/06/01 13:22:49;;;;;;;15.82;9.07;;;;;;;;;;6184866;23;20016;-85
2023/06/01 13:25:14;;;;;;;12.30;8.02;;;;;;;;;;6215791;23;20005;-85
2023/06/01 13:27:40;;;;;;;16.02;8.40;;;;;;;;;;6216187;23;20012;-86
2023/06/01 13:30:06;;;;;;;13.32;7.97;;;;;;;;;;6188736;23;20007;-91
2023/06/01 13:32:32;;;;;;;14.48;8.35;;;;;;;;;;6212838;23;20067;-87
2023/06/01 13:34:58;;;;;;;14.80;8.85;;;;;;;;;;6212651;23;20005;-85
2023/06/01 13:37:23;;;;;;;15.35;7.88;;;;;;;;;;6212057;23;20012;-85
2023/06/01 13:39:49;;;;;;;14.48;8.32;;;;;;;;;;6213413;23;19996;-89
2023/06/01 13:42:16;;;;;;;16.85;8.40;;;;;;;;;;6192178;23;20459;-87
2023/06/01 13:44:45;;;;;;;16.95;9.27;;;;;;;;;;6194361;23;20001;-89
2023/06/01 13:47:11;;;;;;;24.92;12.65;;;;;;;;;;6218222;23;20011;-89
2023/06/01 13:49:39;;;;;;;16.85;9.13;;;;;;;;;;6218233;23;20412;-91
2023/06/01 13:52:05;;;;;;;14.00;9.23;;;;;;;;;;6194030;23;20071;-89
2023/06/01 13:54:30;;;;;;;28.45;16.83;;;;;;;;;;6217067;23;19996;-88
2023/06/01 13:56:56;;;;;;;27.98;13.38;;;;;;;;;;6221603;23;20013;-88
2023/06/01 13:59:21;;;;;;;15.45;8.30;;;;;;;;;;6219140;23;20000;-91
2023/06/01 14:01:47;;;;;;;12.07;8.23;;;;;;;;;;6214231;23;19996;-86
2023/06/01 14:04:12;;;;;;;34.05;17.63;;;;;;;;;;6213771;23;20015;-86
2023/06/01 14:06:38;;;;;;;35.63;17.08;;;;;;;;;;6188819;23;20111;-87
2023/06/01 14:09:03;;;;;;;14.35;8.63;;;;;;;;;;6219052;23;20007;-87
2023/06/01 14:11:28;;;;;;;35.85;22.08;;;;;;;;;;6216366;23;20009;-88
2023/06/01 14:13:54;;;;;;;15.75;10.27;;;;;;;;;;6190206;23;20095;-88
2023/06/01 14:16:19;;;;;;;16.05;8.25;;;;;;;;;;6215482;23;20450;-88
2023/06/01 14:19:02;;;;;;;21.08;11.77;;;;;;;;;;6215721;23;20005;-88
2023/06/01 14:21:30;;;;;;;21.50;13.02;;;;;;;;;;6171074;23;20005;-88
2023/06/01 14:23:55;;;;;;;11.70;7.63;;;;;;;;;;6189863;23;20453;-86
2023/06/01 14:26:21;;;;;;;16.90;8.38;;;;;;;;;;6214624;23;20004;-86
2023/06/01 14:28:46;;;;;;;21.08;7.50;;;;;;;;;;6213107;23;20011;-86
2023/06/01 14:31:12;;;;;;;19.40;8.07;;;;;;;;;;6218095;23;20009;-86
2023/06/01 14:33:38;;;;;;;18.25;7.72;;;;;;;;;;6191580;23;20040;-89
2023/06/01 14:36:04;;;;;;;15.70;7.88;;;;;;;;;;6190232;23;20329;-88
2023/06/01 14:38:30;;;;;;;15.48;9.32;;;;;;;;;;6195418;23;20088;-88
2023/06/01 14:40:55;;;;;;;12.20;7.68;;;;;;;;;;6219014;23;20336;-89
2023/06/01 14:43:33;;;;;;;15.32;7.75;;;;;;;;;;6214561;23;20000;-86
2023/06/01 14:46:17;;;;;;;13.70;7.30;;;;;;;;;;6214159;23;20005;-87
2023/06/01 14:48:43;;;;;;;17.33;7.53;;;;;;;;;;6188028;23;20079;-85